sensor_id;sensor_type;location;lat;lon;timestamp;P1;durP1;ratioP1;P2;durP2;ratioP2
72301;SDS011;60235;52.234;5.186;2023-05-07T00:00:36;35.88;;;17.73;;
72301;SDS011;60235;52.234;5.186;2023-05-07T00:03:02;33.30;;;17.38;;
72301;SDS011;60235;52.234;5.186;2023-05-07T00:05:28;32.38;;;17.77;;
72301;SDS011;60235;52.234;5.186;2023-05-07T00:07:54;33.97;;;18.02;;
72301;SDS011;60235;52.234;5.186;2023-05-07T00:10:20;30.08;;;16.92;;
72301;SDS011;60235;52.234;5.186;2023-05-07T00:12:46;31.05;;;17.25;;
72301;SDS011;60235;52.234;5.186;2023-05-07T00:15:12;35.42;;;18.48;;
72301;SDS011;60235;52.234;5.186;2023-05-07T00:17:38;34.28;;;19.38;;
72301;SDS011;60235;52.234;5.186;2023-05-07T00:20:04;32.33;;;17.45;;
72301;SDS011;60235;52.234;5.186;2023-05-07T00:22:31;35.28;;;18.83;;
72301;SDS011;60235;52.234;5.186;2023-05-07T00:24:57;29.63;;;16.75;;
72301;SDS011;60235;52.234;5.186;2023-05-07T00:27:24;32.53;;;18.00;;
72301;SDS011;60235;52.234;5.186;2023-05-07T00:29:50;33.88;;;17.13;;
72301;SDS011;60235;52.234;5.186;2023-05-07T00:32:16;29.58;;;15.95;;
72301;SDS011;60235;52.234;5.186;2023-05-07T00:34:43;31.10;;;16.80;;
72301;SDS011;60235;52.234;5.186;2023-05-07T00:37:09;32.50;;;17.20;;
72301;SDS011;60235;52.234;5.186;2023-05-07T00:39:36;31.67;;;16.05;;
72301;SDS011;60235;52.234;5.186;2023-05-07T00:42:02;30.00;;;15.27;;
72301;SDS011;60235;52.234;5.186;2023-05-07T00:44:28;31.98;;;15.65;;
72301;SDS011;60235;52.234;5.186;2023-05-07T00:46:55;29.63;;;15.77;;
72301;SDS011;60235;52.234;5.186;2023-05-07T00:49:22;25.75;;;14.93;;
72301;SDS011;60235;52.234;5.186;2023-05-07T00:54:17;25.60;;;13.63;;
72301;SDS011;60235;52.234;5.186;2023-05-07T00:56:44;23.80;;;14.38;;
72301;SDS011;60235;52.234;5.186;2023-05-07T00:59:10;24.52;;;13.68;;
72301;SDS011;60235;52.234;5.186;2023-05-07T01:01:36;23.80;;;14.57;;
72301;SDS011;60235;52.234;5.186;2023-05-07T01:04:02;24.25;;;13.85;;
72301;SDS011;60235;52.234;5.186;2023-05-07T01:06:28;21.95;;;13.20;;
72301;SDS011;60235;52.234;5.186;2023-05-07T01:08:55;25.90;;;13.65;;
72301;SDS011;60235;52.234;5.186;2023-05-07T01:11:22;22.58;;;13.10;;
72301;SDS011;60235;52.234;5.186;2023-05-07T01:13:48;23.58;;;13.38;;
72301;SDS011;60235;52.234;5.186;2023-05-07T01:16:15;24.38;;;12.60;;
72301;SDS011;60235;52.234;5.186;2023-05-07T01:18:42;22.02;;;12.93;;
72301;SDS011;60235;52.234;5.186;2023-05-07T01:21:08;23.45;;;13.35;;
72301;SDS011;60235;52.234;5.186;2023-05-07T01:26:02;22.13;;;12.50;;
72301;SDS011;60235;52.234;5.186;2023-05-07T01:28:28;19.48;;;11.82;;
72301;SDS011;60235;52.234;5.186;2023-05-07T01:30:56;22.88;;;12.57;;
72301;SDS011;60235;52.234;5.186;2023-05-07T01:33:26;23.67;;;12.70;;
72301;SDS011;60235;52.234;5.186;2023-05-07T01:35:53;24.13;;;12.65;;
72301;SDS011;60235;52.234;5.186;2023-05-07T01:38:20;22.20;;;12.88;;
72301;SDS011;60235;52.234;5.186;2023-05-07T01:40:47;25.10;;;11.90;;
72301;SDS011;60235;52.234;5.186;2023-05-07T01:43:13;19.67;;;11.80;;
72301;SDS011;60235;52.234;5.186;2023-05-07T01:45:39;20.95;;;12.45;;
72301;SDS011;60235;52.234;5.186;2023-05-07T01:48:06;20.83;;;11.95;;
72301;SDS011;60235;52.234;5.186;2023-05-07T01:50:32;22.38;;;12.23;;
72301;SDS011;60235;52.234;5.186;2023-05-07T01:52:58;20.45;;;11.68;;
72301;SDS011;60235;52.234;5.186;2023-05-07T01:55:24;21.77;;;11.95;;
72301;SDS011;60235;52.234;5.186;2023-05-07T01:57:50;20.40;;;11.85;;
72301;SDS011;60235;52.234;5.186;2023-05-07T02:00:16;20.45;;;11.15;;
72301;SDS011;60235;52.234;5.186;2023-05-07T02:02:43;21.70;;;11.35;;
72301;SDS011;60235;52.234;5.186;2023-05-07T02:05:10;20.63;;;11.77;;
72301;SDS011;60235;52.234;5.186;2023-05-07T02:07:36;21.02;;;10.93;;
72301;SDS011;60235;52.234;5.186;2023-05-07T02:10:02;23.20;;;12.35;;
72301;SDS011;60235;52.234;5.186;2023-05-07T02:12:28;18.70;;;11.68;;
72301;SDS011;60235;52.234;5.186;2023-05-07T02:14:54;21.85;;;11.90;;
72301;SDS011;60235;52.234;5.186;2023-05-07T02:17:20;20.73;;;11.82;;
72301;SDS011;60235;52.234;5.186;2023-05-07T02:19:46;19.83;;;11.98;;
72301;SDS011;60235;52.234;5.186;2023-05-07T02:22:12;19.40;;;11.63;;
72301;SDS011;60235;52.234;5.186;2023-05-07T02:24:38;18.58;;;11.15;;
72301;SDS011;60235;52.234;5.186;2023-05-07T02:27:04;23.25;;;11.73;;
72301;SDS011;60235;52.234;5.186;2023-05-07T02:29:30;21.83;;;11.73;;
72301;SDS011;60235;52.234;5.186;2023-05-07T02:31:56;19.17;;;11.60;;
72301;SDS011;60235;52.234;5.186;2023-05-07T02:34:22;22.55;;;11.55;;
72301;SDS011;60235;52.234;5.186;2023-05-07T02:36:48;19.85;;;11.85;;
72301;SDS011;60235;52.234;5.186;2023-05-07T02:39:14;18.90;;;11.05;;
72301;SDS011;60235;52.234;5.186;2023-05-07T02:41:41;23.42;;;12.63;;
72301;SDS011;60235;52.234;5.186;2023-05-07T02:44:07;19.65;;;10.90;;
72301;SDS011;60235;52.234;5.186;2023-05-07T02:46:34;22.98;;;11.45;;
72301;SDS011;60235;52.234;5.186;2023-05-07T02:49:00;19.65;;;11.25;;
72301;SDS011;60235;52.234;5.186;2023-05-07T02:51:26;19.88;;;11.85;;
72301;SDS011;60235;52.234;5.186;2023-05-07T02:53:52;22.05;;;11.13;;
72301;SDS011;60235;52.234;5.186;2023-05-07T02:56:18;26.75;;;11.85;;
72301;SDS011;60235;52.234;5.186;2023-05-07T02:58:44;17.63;;;10.93;;
72301;SDS011;60235;52.234;5.186;2023-05-07T03:01:10;20.48;;;11.98;;
72301;SDS011;60235;52.234;5.186;2023-05-07T03:03:38;19.63;;;11.77;;
72301;SDS011;60235;52.234;5.186;2023-05-07T03:06:05;19.55;;;10.77;;
72301;SDS011;60235;52.234;5.186;2023-05-07T03:08:31;21.25;;;12.25;;
72301;SDS011;60235;52.234;5.186;2023-05-07T03:10:57;19.13;;;11.57;;
72301;SDS011;60235;52.234;5.186;2023-05-07T03:13:23;21.15;;;11.98;;
72301;SDS011;60235;52.234;5.186;2023-05-07T03:15:49;20.88;;;11.50;;
72301;SDS011;60235;52.234;5.186;2023-05-07T03:18:15;21.95;;;12.38;;
72301;SDS011;60235;52.234;5.186;2023-05-07T03:20:41;21.40;;;12.52;;
72301;SDS011;60235;52.234;5.186;2023-05-07T03:23:07;20.85;;;11.32;;
72301;SDS011;60235;52.234;5.186;2023-05-07T03:25:33;21.73;;;12.23;;
72301;SDS011;60235;52.234;5.186;2023-05-07T03:27:59;23.35;;;12.15;;
72301;SDS011;60235;52.234;5.186;2023-05-07T03:30:25;21.45;;;12.23;;
72301;SDS011;60235;52.234;5.186;2023-05-07T03:32:51;20.92;;;11.55;;
72301;SDS011;60235;52.234;5.186;2023-05-07T03:35:17;19.55;;;12.27;;
72301;SDS011;60235;52.234;5.186;2023-05-07T03:37:43;24.38;;;12.02;;
72301;SDS011;60235;52.234;5.186;2023-05-07T03:40:10;27.27;;;12.63;;
72301;SDS011;60235;52.234;5.186;2023-05-07T03:42:37;23.15;;;13.20;;
72301;SDS011;60235;52.234;5.186;2023-05-07T03:45:03;21.55;;;12.95;;
72301;SDS011;60235;52.234;5.186;2023-05-07T03:47:29;21.38;;;12.20;;
72301;SDS011;60235;52.234;5.186;2023-05-07T03:49:55;19.90;;;12.05;;
72301;SDS011;60235;52.234;5.186;2023-05-07T03:52:21;21.63;;;11.73;;
72301;SDS011;60235;52.234;5.186;2023-05-07T03:54:50;21.52;;;12.43;;
72301;SDS011;60235;52.234;5.186;2023-05-07T03:57:16;20.67;;;12.77;;
72301;SDS011;60235;52.234;5.186;2023-05-07T03:59:42;22.05;;;11.88;;
72301;SDS011;60235;52.234;5.186;2023-05-07T04:02:08;24.48;;;12.52;;
72301;SDS011;60235;52.234;5.186;2023-05-07T04:04:34;22.17;;;12.13;;
72301;SDS011;60235;52.234;5.186;2023-05-07T04:07:00;20.77;;;12.55;;
72301;SDS011;60235;52.234;5.186;2023-05-07T04:09:26;20.45;;;11.68;;
72301;SDS011;60235;52.234;5.186;2023-05-07T04:11:52;23.45;;;12.23;;
72301;SDS011;60235;52.234;5.186;2023-05-07T04:14:18;21.58;;;12.10;;
72301;SDS011;60235;52.234;5.186;2023-05-07T04:16:44;19.70;;;12.45;;
72301;SDS011;60235;52.234;5.186;2023-05-07T04:19:10;20.15;;;12.20;;
72301;SDS011;60235;52.234;5.186;2023-05-07T04:21:36;20.60;;;12.20;;
72301;SDS011;60235;52.234;5.186;2023-05-07T04:24:03;20.13;;;12.50;;
72301;SDS011;60235;52.234;5.186;2023-05-07T04:26:29;23.13;;;12.55;;
72301;SDS011;60235;52.234;5.186;2023-05-07T04:28:55;21.70;;;12.50;;
72301;SDS011;60235;52.234;5.186;2023-05-07T04:31:22;20.85;;;12.40;;
72301;SDS011;60235;52.234;5.186;2023-05-07T04:33:48;22.15;;;12.43;;
72301;SDS011;60235;52.234;5.186;2023-05-07T04:36:15;19.63;;;12.35;;
72301;SDS011;60235;52.234;5.186;2023-05-07T04:38:41;19.00;;;12.40;;
72301;SDS011;60235;52.234;5.186;2023-05-07T04:41:08;19.38;;;11.18;;
72301;SDS011;60235;52.234;5.186;2023-05-07T04:43:34;21.73;;;11.82;;
72301;SDS011;60235;52.234;5.186;2023-05-07T04:46:00;23.17;;;12.43;;
72301;SDS011;60235;52.234;5.186;2023-05-07T04:48:26;21.77;;;11.82;;
72301;SDS011;60235;52.234;5.186;2023-05-07T04:50:53;18.83;;;11.60;;
72301;SDS011;60235;52.234;5.186;2023-05-07T04:53:20;19.83;;;11.65;;
72301;SDS011;60235;52.234;5.186;2023-05-07T04:55:46;21.42;;;12.25;;
72301;SDS011;60235;52.234;5.186;2023-05-07T04:58:13;21.40;;;12.05;;
72301;SDS011;60235;52.234;5.186;2023-05-07T05:00:39;21.38;;;12.45;;
72301;SDS011;60235;52.234;5.186;2023-05-07T05:03:08;20.50;;;11.75;;
72301;SDS011;60235;52.234;5.186;2023-05-07T05:05:34;22.05;;;12.45;;
72301;SDS011;60235;52.234;5.186;2023-05-07T05:08:00;21.20;;;11.30;;
72301;SDS011;60235;52.234;5.186;2023-05-07T05:10:26;21.10;;;12.30;;
72301;SDS011;60235;52.234;5.186;2023-05-07T05:12:52;20.90;;;12.02;;
72301;SDS011;60235;52.234;5.186;2023-05-07T05:15:18;21.15;;;12.75;;
72301;SDS011;60235;52.234;5.186;2023-05-07T05:17:44;22.15;;;13.02;;
72301;SDS011;60235;52.234;5.186;2023-05-07T05:20:10;20.63;;;11.88;;
72301;SDS011;60235;52.234;5.186;2023-05-07T05:22:37;23.23;;;12.95;;
72301;SDS011;60235;52.234;5.186;2023-05-07T05:25:03;20.88;;;12.77;;
72301;SDS011;60235;52.234;5.186;2023-05-07T05:27:29;25.95;;;12.23;;
72301;SDS011;60235;52.234;5.186;2023-05-07T05:29:55;21.10;;;12.82;;
72301;SDS011;60235;52.234;5.186;2023-05-07T05:32:21;18.90;;;12.10;;
72301;SDS011;60235;52.234;5.186;2023-05-07T05:34:47;22.70;;;12.43;;
72301;SDS011;60235;52.234;5.186;2023-05-07T05:37:13;22.67;;;11.95;;
72301;SDS011;60235;52.234;5.186;2023-05-07T05:39:39;19.58;;;10.75;;
72301;SDS011;60235;52.234;5.186;2023-05-07T05:42:06;22.58;;;12.15;;
72301;SDS011;60235;52.234;5.186;2023-05-07T05:44:32;19.98;;;12.18;;
72301;SDS011;60235;52.234;5.186;2023-05-07T05:46:58;20.58;;;11.48;;
72301;SDS011;60235;52.234;5.186;2023-05-07T05:49:24;18.67;;;11.70;;
72301;SDS011;60235;52.234;5.186;2023-05-07T05:51:50;21.15;;;12.27;;
72301;SDS011;60235;52.234;5.186;2023-05-07T05:54:16;23.38;;;12.98;;
72301;SDS011;60235;52.234;5.186;2023-05-07T05:56:42;26.35;;;12.77;;
72301;SDS011;60235;52.234;5.186;2023-05-07T05:59:09;21.63;;;13.45;;
72301;SDS011;60235;52.234;5.186;2023-05-07T06:01:35;23.48;;;13.63;;
72301;SDS011;60235;52.234;5.186;2023-05-07T06:04:01;25.35;;;14.15;;
72301;SDS011;60235;52.234;5.186;2023-05-07T06:06:27;25.50;;;13.73;;
72301;SDS011;60235;52.234;5.186;2023-05-07T06:08:53;23.73;;;14.07;;
72301;SDS011;60235;52.234;5.186;2023-05-07T06:11:19;26.90;;;15.23;;
72301;SDS011;60235;52.234;5.186;2023-05-07T06:13:45;26.98;;;14.10;;
72301;SDS011;60235;52.234;5.186;2023-05-07T06:16:11;23.25;;;13.80;;
72301;SDS011;60235;52.234;5.186;2023-05-07T06:18:37;23.42;;;13.45;;
72301;SDS011;60235;52.234;5.186;2023-05-07T06:21:03;23.33;;;13.02;;
72301;SDS011;60235;52.234;5.186;2023-05-07T06:23:29;23.63;;;12.23;;
72301;SDS011;60235;52.234;5.186;2023-05-07T06:25:55;23.08;;;13.65;;
72301;SDS011;60235;52.234;5.186;2023-05-07T06:28:21;29.20;;;14.40;;
72301;SDS011;60235;52.234;5.186;2023-05-07T06:30:47;25.02;;;13.90;;
72301;SDS011;60235;52.234;5.186;2023-05-07T06:33:15;22.83;;;13.50;;
72301;SDS011;60235;52.234;5.186;2023-05-07T06:35:41;25.33;;;14.35;;
72301;SDS011;60235;52.234;5.186;2023-05-07T06:38:07;26.05;;;15.68;;
72301;SDS011;60235;52.234;5.186;2023-05-07T06:40:33;24.63;;;14.25;;
72301;SDS011;60235;52.234;5.186;2023-05-07T06:42:59;26.20;;;15.82;;
72301;SDS011;60235;52.234;5.186;2023-05-07T06:45:25;27.02;;;16.50;;
72301;SDS011;60235;52.234;5.186;2023-05-07T06:47:51;27.10;;;15.02;;
72301;SDS011;60235;52.234;5.186;2023-05-07T06:50:17;26.65;;;15.77;;
72301;SDS011;60235;52.234;5.186;2023-05-07T06:52:43;27.73;;;16.77;;
72301;SDS011;60235;52.234;5.186;2023-05-07T06:55:09;25.08;;;15.75;;
72301;SDS011;60235;52.234;5.186;2023-05-07T06:57:36;30.15;;;15.68;;
72301;SDS011;60235;52.234;5.186;2023-05-07T07:00:02;26.67;;;15.50;;
72301;SDS011;60235;52.234;5.186;2023-05-07T07:02:29;27.65;;;15.05;;
72301;SDS011;60235;52.234;5.186;2023-05-07T07:04:55;23.85;;;14.48;;
72301;SDS011;60235;52.234;5.186;2023-05-07T07:07:21;25.05;;;15.55;;
72301;SDS011;60235;52.234;5.186;2023-05-07T07:09:47;25.48;;;15.25;;
72301;SDS011;60235;52.234;5.186;2023-05-07T07:12:13;28.27;;;15.32;;
72301;SDS011;60235;52.234;5.186;2023-05-07T07:14:39;26.10;;;15.10;;
72301;SDS011;60235;52.234;5.186;2023-05-07T07:17:05;24.00;;;13.98;;
72301;SDS011;60235;52.234;5.186;2023-05-07T07:19:31;23.83;;;14.70;;
72301;SDS011;60235;52.234;5.186;2023-05-07T07:21:57;25.70;;;15.10;;
72301;SDS011;60235;52.234;5.186;2023-05-07T07:24:23;25.92;;;14.43;;
72301;SDS011;60235;52.234;5.186;2023-05-07T07:26:49;26.23;;;14.80;;
72301;SDS011;60235;52.234;5.186;2023-05-07T07:29:15;26.42;;;15.02;;
72301;SDS011;60235;52.234;5.186;2023-05-07T07:31:41;27.00;;;15.57;;
72301;SDS011;60235;52.234;5.186;2023-05-07T07:34:07;24.88;;;14.90;;
72301;SDS011;60235;52.234;5.186;2023-05-07T07:36:33;25.27;;;15.38;;
72301;SDS011;60235;52.234;5.186;2023-05-07T07:38:59;25.98;;;15.23;;
72301;SDS011;60235;52.234;5.186;2023-05-07T07:41:25;25.33;;;13.32;;
72301;SDS011;60235;52.234;5.186;2023-05-07T07:43:51;23.67;;;14.18;;
72301;SDS011;60235;52.234;5.186;2023-05-07T07:46:17;22.13;;;13.75;;
72301;SDS011;60235;52.234;5.186;2023-05-07T07:48:43;25.52;;;14.93;;
72301;SDS011;60235;52.234;5.186;2023-05-07T07:51:09;26.77;;;15.18;;
72301;SDS011;60235;52.234;5.186;2023-05-07T07:53:35;24.88;;;14.55;;
72301;SDS011;60235;52.234;5.186;2023-05-07T07:56:01;24.23;;;14.60;;
72301;SDS011;60235;52.234;5.186;2023-05-07T07:58:27;25.83;;;13.95;;
72301;SDS011;60235;52.234;5.186;2023-05-07T08:00:53;22.73;;;13.18;;
72301;SDS011;60235;52.234;5.186;2023-05-07T08:03:20;22.23;;;14.30;;
72301;SDS011;60235;52.234;5.186;2023-05-07T08:05:47;23.60;;;14.93;;
72301;SDS011;60235;52.234;5.186;2023-05-07T08:08:15;23.77;;;14.88;;
72301;SDS011;60235;52.234;5.186;2023-05-07T08:10:41;23.63;;;13.90;;
72301;SDS011;60235;52.234;5.186;2023-05-07T08:13:07;23.42;;;13.82;;
72301;SDS011;60235;52.234;5.186;2023-05-07T08:15:33;26.95;;;14.65;;
72301;SDS011;60235;52.234;5.186;2023-05-07T08:17:59;24.48;;;14.70;;
72301;SDS011;60235;52.234;5.186;2023-05-07T08:20:25;24.40;;;15.05;;
72301;SDS011;60235;52.234;5.186;2023-05-07T08:22:51;23.52;;;15.20;;
72301;SDS011;60235;52.234;5.186;2023-05-07T08:25:17;22.77;;;14.90;;
72301;SDS011;60235;52.234;5.186;2023-05-07T08:27:43;24.63;;;14.88;;
72301;SDS011;60235;52.234;5.186;2023-05-07T08:30:10;25.08;;;15.00;;
72301;SDS011;60235;52.234;5.186;2023-05-07T08:32:36;22.13;;;13.85;;
72301;SDS011;60235;52.234;5.186;2023-05-07T08:35:02;22.98;;;13.93;;
72301;SDS011;60235;52.234;5.186;2023-05-07T08:37:28;22.23;;;13.55;;
72301;SDS011;60235;52.234;5.186;2023-05-07T08:39:54;21.58;;;13.60;;
72301;SDS011;60235;52.234;5.186;2023-05-07T08:42:20;22.88;;;14.52;;
72301;SDS011;60235;52.234;5.186;2023-05-07T08:44:49;23.85;;;14.50;;
72301;SDS011;60235;52.234;5.186;2023-05-07T08:47:18;25.80;;;15.60;;
72301;SDS011;60235;52.234;5.186;2023-05-07T08:49:44;20.20;;;14.07;;
72301;SDS011;60235;52.234;5.186;2023-05-07T08:52:11;24.25;;;14.05;;
72301;SDS011;60235;52.234;5.186;2023-05-07T08:54:37;23.33;;;13.68;;
72301;SDS011;60235;52.234;5.186;2023-05-07T08:57:05;21.95;;;14.00;;
72301;SDS011;60235;52.234;5.186;2023-05-07T08:59:31;23.88;;;14.25;;
72301;SDS011;60235;52.234;5.186;2023-05-07T09:01:57;23.42;;;14.75;;
72301;SDS011;60235;52.234;5.186;2023-05-07T09:04:23;23.15;;;14.57;;
72301;SDS011;60235;52.234;5.186;2023-05-07T09:06:49;22.17;;;13.52;;
72301;SDS011;60235;52.234;5.186;2023-05-07T09:09:17;22.52;;;13.90;;
72301;SDS011;60235;52.234;5.186;2023-05-07T09:11:46;26.02;;;13.13;;
72301;SDS011;60235;52.234;5.186;2023-05-07T09:14:12;19.92;;;12.45;;
72301;SDS011;60235;52.234;5.186;2023-05-07T09:16:38;28.65;;;11.55;;
72301;SDS011;60235;52.234;5.186;2023-05-07T09:19:04;19.63;;;11.88;;
72301;SDS011;60235;52.234;5.186;2023-05-07T09:21:30;19.08;;;11.68;;
72301;SDS011;60235;52.234;5.186;2023-05-07T09:23:56;19.50;;;11.75;;
72301;SDS011;60235;52.234;5.186;2023-05-07T09:26:23;47.88;;;14.48;;
72301;SDS011;60235;52.234;5.186;2023-05-07T09:28:49;17.63;;;11.35;;
72301;SDS011;60235;52.234;5.186;2023-05-07T09:31:15;16.90;;;10.82;;
72301;SDS011;60235;52.234;5.186;2023-05-07T09:33:41;16.33;;;10.85;;
72301;SDS011;60235;52.234;5.186;2023-05-07T09:36:08;19.48;;;11.15;;
72301;SDS011;60235;52.234;5.186;2023-05-07T09:38:35;17.98;;;11.20;;
72301;SDS011;60235;52.234;5.186;2023-05-07T09:41:08;16.70;;;11.48;;
72301;SDS011;60235;52.234;5.186;2023-05-07T09:43:35;16.50;;;9.98;;
72301;SDS011;60235;52.234;5.186;2023-05-07T09:46:34;15.75;;;9.80;;
72301;SDS011;60235;52.234;5.186;2023-05-07T09:48:53;14.40;;;9.18;;
72301;SDS011;60235;52.234;5.186;2023-05-07T09:51:26;16.80;;;10.48;;
72301;SDS011;60235;52.234;5.186;2023-05-07T09:53:54;16.92;;;10.55;;
72301;SDS011;60235;52.234;5.186;2023-05-07T09:56:21;18.65;;;11.07;;
72301;SDS011;60235;52.234;5.186;2023-05-07T09:58:48;17.52;;;9.85;;
72301;SDS011;60235;52.234;5.186;2023-05-07T10:01:15;16.50;;;10.63;;
72301;SDS011;60235;52.234;5.186;2023-05-07T10:03:44;16.23;;;10.00;;
72301;SDS011;60235;52.234;5.186;2023-05-07T10:06:10;16.23;;;10.07;;
72301;SDS011;60235;52.234;5.186;2023-05-07T10:08:37;16.60;;;9.77;;
72301;SDS011;60235;52.234;5.186;2023-05-07T10:11:04;20.60;;;10.55;;
72301;SDS011;60235;52.234;5.186;2023-05-07T10:13:31;15.55;;;10.25;;
72301;SDS011;60235;52.234;5.186;2023-05-07T10:15:57;16.83;;;10.02;;
72301;SDS011;60235;52.234;5.186;2023-05-07T10:18:23;19.20;;;10.00;;
72301;SDS011;60235;52.234;5.186;2023-05-07T10:20:54;15.52;;;9.38;;
72301;SDS011;60235;52.234;5.186;2023-05-07T10:23:24;18.17;;;10.27;;
72301;SDS011;60235;52.234;5.186;2023-05-07T10:25:52;13.48;;;7.97;;
72301;SDS011;60235;52.234;5.186;2023-05-07T10:28:19;14.90;;;8.80;;
72301;SDS011;60235;52.234;5.186;2023-05-07T10:33:31;13.55;;;8.68;;
72301;SDS011;60235;52.234;5.186;2023-05-07T10:36:00;14.73;;;9.30;;
72301;SDS011;60235;52.234;5.186;2023-05-07T10:38:27;15.85;;;9.32;;
72301;SDS011;60235;52.234;5.186;2023-05-07T10:40:54;15.20;;;8.40;;
72301;SDS011;60235;52.234;5.186;2023-05-07T10:43:20;12.00;;;7.30;;
72301;SDS011;60235;52.234;5.186;2023-05-07T10:46:08;14.95;;;7.82;;
72301;SDS011;60235;52.234;5.186;2023-05-07T10:48:35;15.63;;;8.45;;
72301;SDS011;60235;52.234;5.186;2023-05-07T10:51:21;16.38;;;7.72;;
72301;SDS011;60235;52.234;5.186;2023-05-07T10:53:47;15.02;;;8.32;;
72301;SDS011;60235;52.234;5.186;2023-05-07T10:58:42;13.50;;;8.05;;
72301;SDS011;60235;52.234;5.186;2023-05-07T11:01:08;10.95;;;6.47;;
72301;SDS011;60235;52.234;5.186;2023-05-07T11:03:36;13.10;;;6.75;;
72301;SDS011;60235;52.234;5.186;2023-05-07T11:06:22;12.93;;;6.78;;
72301;SDS011;60235;52.234;5.186;2023-05-07T11:08:57;11.98;;;5.70;;
72301;SDS011;60235;52.234;5.186;2023-05-07T11:14:08;10.50;;;4.82;;
72301;SDS011;60235;52.234;5.186;2023-05-07T11:16:34;9.63;;;4.50;;
72301;SDS011;60235;52.234;5.186;2023-05-07T11:19:01;11.55;;;4.20;;
72301;SDS011;60235;52.234;5.186;2023-05-07T11:21:37;8.85;;;3.42;;
72301;SDS011;60235;52.234;5.186;2023-05-07T11:24:04;9.65;;;3.10;;
72301;SDS011;60235;52.234;5.186;2023-05-07T11:26:31;8.20;;;3.17;;
72301;SDS011;60235;52.234;5.186;2023-05-07T11:28:57;8.90;;;3.10;;
72301;SDS011;60235;52.234;5.186;2023-05-07T11:31:25;6.63;;;2.72;;
72301;SDS011;60235;52.234;5.186;2023-05-07T11:33:53;8.20;;;3.67;;
72301;SDS011;60235;52.234;5.186;2023-05-07T11:36:20;8.75;;;3.20;;
72301;SDS011;60235;52.234;5.186;2023-05-07T11:38:46;8.60;;;3.35;;
72301;SDS011;60235;52.234;5.186;2023-05-07T11:41:12;7.13;;;2.45;;
72301;SDS011;60235;52.234;5.186;2023-05-07T11:43:40;7.88;;;2.90;;
72301;SDS011;60235;52.234;5.186;2023-05-07T11:46:19;10.43;;;3.65;;
72301;SDS011;60235;52.234;5.186;2023-05-07T11:48:45;8.23;;;3.20;;
72301;SDS011;60235;52.234;5.186;2023-05-07T11:51:11;8.70;;;2.72;;
72301;SDS011;60235;52.234;5.186;2023-05-07T11:53:38;7.53;;;2.13;;
72301;SDS011;60235;52.234;5.186;2023-05-07T11:56:08;7.40;;;2.50;;
72301;SDS011;60235;52.234;5.186;2023-05-07T11:58:35;7.20;;;2.65;;
72301;SDS011;60235;52.234;5.186;2023-05-07T12:01:01;8.57;;;2.95;;
72301;SDS011;60235;52.234;5.186;2023-05-07T12:03:27;9.30;;;3.63;;
72301;SDS011;60235;52.234;5.186;2023-05-07T12:05:53;8.70;;;2.88;;
72301;SDS011;60235;52.234;5.186;2023-05-07T12:08:20;9.82;;;2.75;;
72301;SDS011;60235;52.234;5.186;2023-05-07T12:10:48;8.20;;;2.67;;
72301;SDS011;60235;52.234;5.186;2023-05-07T12:13:21;10.32;;;3.55;;
72301;SDS011;60235;52.234;5.186;2023-05-07T12:15:50;9.25;;;3.30;;
72301;SDS011;60235;52.234;5.186;2023-05-07T12:18:16;9.93;;;3.55;;
72301;SDS011;60235;52.234;5.186;2023-05-07T12:20:42;15.55;;;4.05;;
72301;SDS011;60235;52.234;5.186;2023-05-07T12:23:08;7.38;;;3.38;;
72301;SDS011;60235;52.234;5.186;2023-05-07T12:25:35;10.90;;;4.10;;
72301;SDS011;60235;52.234;5.186;2023-05-07T12:28:04;11.60;;;3.60;;
72301;SDS011;60235;52.234;5.186;2023-05-07T12:30:37;7.80;;;3.13;;
72301;SDS011;60235;52.234;5.186;2023-05-07T12:33:03;9.40;;;3.30;;
72301;SDS011;60235;52.234;5.186;2023-05-07T12:35:29;10.60;;;4.13;;
72301;SDS011;60235;52.234;5.186;2023-05-07T12:37:56;10.73;;;4.63;;
72301;SDS011;60235;52.234;5.186;2023-05-07T12:40:24;10.60;;;4.68;;
72301;SDS011;60235;52.234;5.186;2023-05-07T12:42:52;10.38;;;5.07;;
72301;SDS011;60235;52.234;5.186;2023-05-07T12:45:21;10.25;;;4.60;;
72301;SDS011;60235;52.234;5.186;2023-05-07T12:47:47;10.63;;;4.88;;
72301;SDS011;60235;52.234;5.186;2023-05-07T12:50:14;11.98;;;4.65;;
72301;SDS011;60235;52.234;5.186;2023-05-07T12:52:40;8.77;;;4.40;;
72301;SDS011;60235;52.234;5.186;2023-05-07T12:55:06;9.88;;;5.28;;
72301;SDS011;60235;52.234;5.186;2023-05-07T12:57:43;10.68;;;5.30;;
72301;SDS011;60235;52.234;5.186;2023-05-07T13:00:09;10.02;;;4.00;;
72301;SDS011;60235;52.234;5.186;2023-05-07T13:02:39;12.52;;;5.68;;
72301;SDS011;60235;52.234;5.186;2023-05-07T13:05:05;11.32;;;4.85;;
72301;SDS011;60235;52.234;5.186;2023-05-07T13:07:32;10.30;;;5.47;;
72301;SDS011;60235;52.234;5.186;2023-05-07T13:09:58;9.80;;;5.28;;
72301;SDS011;60235;52.234;5.186;2023-05-07T13:12:24;13.18;;;5.75;;
72301;SDS011;60235;52.234;5.186;2023-05-07T13:14:50;10.02;;;5.15;;
72301;SDS011;60235;52.234;5.186;2023-05-07T13:17:16;12.93;;;5.22;;
72301;SDS011;60235;52.234;5.186;2023-05-07T13:19:43;11.95;;;5.10;;
72301;SDS011;60235;52.234;5.186;2023-05-07T13:22:09;9.98;;;4.30;;
72301;SDS011;60235;52.234;5.186;2023-05-07T13:24:35;10.70;;;5.28;;
72301;SDS011;60235;52.234;5.186;2023-05-07T13:27:01;10.00;;;4.85;;
72301;SDS011;60235;52.234;5.186;2023-05-07T13:29:28;13.27;;;5.60;;
72301;SDS011;60235;52.234;5.186;2023-05-07T13:31:58;11.20;;;5.13;;
72301;SDS011;60235;52.234;5.186;2023-05-07T13:34:24;9.98;;;4.28;;
72301;SDS011;60235;52.234;5.186;2023-05-07T13:36:50;12.02;;;5.28;;
72301;SDS011;60235;52.234;5.186;2023-05-07T13:39:17;10.80;;;5.13;;
72301;SDS011;60235;52.234;5.186;2023-05-07T13:41:43;10.80;;;5.47;;
72301;SDS011;60235;52.234;5.186;2023-05-07T13:44:09;11.85;;;5.30;;
72301;SDS011;60235;52.234;5.186;2023-05-07T13:46:35;18.63;;;6.13;;
72301;SDS011;60235;52.234;5.186;2023-05-07T13:49:01;13.45;;;6.10;;
72301;SDS011;60235;52.234;5.186;2023-05-07T13:51:27;13.25;;;6.00;;
72301;SDS011;60235;52.234;5.186;2023-05-07T13:53:53;10.95;;;5.85;;
72301;SDS011;60235;52.234;5.186;2023-05-07T13:56:19;11.43;;;6.05;;
72301;SDS011;60235;52.234;5.186;2023-05-07T13:58:46;12.88;;;5.95;;
72301;SDS011;60235;52.234;5.186;2023-05-07T14:01:12;13.38;;;5.80;;
72301;SDS011;60235;52.234;5.186;2023-05-07T14:03:38;12.75;;;5.63;;
72301;SDS011;60235;52.234;5.186;2023-05-07T14:06:04;11.93;;;6.18;;
72301;SDS011;60235;52.234;5.186;2023-05-07T14:08:30;13.93;;;6.20;;
72301;SDS011;60235;52.234;5.186;2023-05-07T14:10:56;11.43;;;5.72;;
72301;SDS011;60235;52.234;5.186;2023-05-07T14:13:22;14.93;;;6.75;;
72301;SDS011;60235;52.234;5.186;2023-05-07T14:15:48;14.80;;;6.60;;
72301;SDS011;60235;52.234;5.186;2023-05-07T14:18:15;12.05;;;6.10;;
72301;SDS011;60235;52.234;5.186;2023-05-07T14:20:41;16.85;;;7.57;;
72301;SDS011;60235;52.234;5.186;2023-05-07T14:23:11;19.70;;;6.82;;
72301;SDS011;60235;52.234;5.186;2023-05-07T14:25:37;18.23;;;7.97;;
72301;SDS011;60235;52.234;5.186;2023-05-07T14:28:04;14.98;;;7.43;;
72301;SDS011;60235;52.234;5.186;2023-05-07T14:30:30;16.40;;;8.50;;
72301;SDS011;60235;52.234;5.186;2023-05-07T14:32:56;17.83;;;8.45;;
72301;SDS011;60235;52.234;5.186;2023-05-07T14:35:22;20.55;;;9.10;;